sensor_id;sensor_type;location;lat;lon;timestamp;P1;P2;P0
40569;PMS5003;26270;34.428;-119.710;2022-11-25T00:00:48;2;1;
40569;PMS5003;26270;34.428;-119.710;2022-11-25T00:03:16;3;1;
40569;PMS5003;26270;34.428;-119.710;2022-11-25T00:05:45;2;1;
40569;PMS5003;26270;34.428;-119.710;2022-11-25T00:08:13;5;1;
40569;PMS5003;26270;34.428;-119.710;2022-11-25T00:10:41;1;1;
40569;PMS5003;26270;34.428;-119.710;2022-11-25T00:13:09;2;1;
40569;PMS5003;26270;34.428;-119.710;2022-11-25T00:15:37;1;1;
40569;PMS5003;26270;34.428;-119.710;2022-11-25T00:18:05;2;1;
40569;PMS5003;26270;34.428;-119.710;2022-11-25T00:20:36;3;1;
40569;PMS5003;26270;34.428;-119.710;2022-11-25T00:23:04;2;1;
40569;PMS5003;26270;34.428;-119.710;2022-11-25T00:25:32;2;1;
40569;PMS5003;26270;34.428;-119.710;2022-11-25T00:28:00;2;2;
40569;PMS5003;26270;34.428;-119.710;2022-11-25T00:30:28;6;2;
40569;PMS5003;26270;34.428;-119.710;2022-11-25T00:32:56;3;0;
40569;PMS5003;26270;34.428;-119.710;2022-11-25T00:35:24;2;1;
40569;PMS5003;26270;34.428;-119.710;2022-11-25T00:37:53;1;0;
40569;PMS5003;26270;34.428;-119.710;2022-11-25T00:40:21;1;1;
40569;PMS5003;26270;34.428;-119.710;2022-11-25T00:42:49;1;0;
40569;PMS5003;26270;34.428;-119.710;2022-11-25T00:45:17;1;1;
40569;PMS5003;26270;34.428;-119.710;2022-11-25T00:47:46;0;0;
40569;PMS5003;26270;34.428;-119.710;2022-11-25T00:50:14;1;1;
40569;PMS5003;26270;34.428;-119.710;2022-11-25T00:52:42;0;0;
40569;PMS5003;26270;34.428;-119.710;2022-11-25T00:55:11;4;2;
40569;PMS5003;26270;34.428;-119.710;2022-11-25T00:57:39;2;1;
40569;PMS5003;26270;34.428;-119.710;2022-11-25T01:00:08;1;1;
40569;PMS5003;26270;34.428;-119.710;2022-11-25T01:02:37;8;2;
40569;PMS5003;26270;34.428;-119.710;2022-11-25T01:05:06;0;0;
40569;PMS5003;26270;34.428;-119.710;2022-11-25T01:07:34;1;1;
40569;PMS5003;26270;34.428;-119.710;2022-11-25T01:10:02;2;1;
40569;PMS5003;26270;34.428;-119.710;2022-11-25T01:12:31;4;3;
40569;PMS5003;26270;34.428;-119.710;2022-11-25T01:14:59;4;2;
40569;PMS5003;26270;34.428;-119.710;2022-11-25T01:17:28;0;0;
40569;PMS5003;26270;34.428;-119.710;2022-11-25T01:19:56;6;2;
40569;PMS5003;26270;34.428;-119.710;2022-11-25T01:22:24;1;1;
40569;PMS5003;26270;34.428;-119.710;2022-11-25T01:24:52;1;1;
40569;PMS5003;26270;34.428;-119.710;2022-11-25T01:27:20;3;1;
40569;PMS5003;26270;34.428;-119.710;2022-11-25T01:29:49;4;1;
40569;PMS5003;26270;34.428;-119.710;2022-11-25T01:32:17;5;2;
40569;PMS5003;26270;34.428;-119.710;2022-11-25T01:34:45;4;3;
40569;PMS5003;26270;34.428;-119.710;2022-11-25T01:37:13;6;4;
40569;PMS5003;26270;34.428;-119.710;2022-11-25T01:39:42;3;2;
40569;PMS5003;26270;34.428;-119.710;2022-11-25T01:42:10;2;1;
40569;PMS5003;26270;34.428;-119.710;2022-11-25T01:44:39;3;0;
40569;PMS5003;26270;34.428;-119.710;2022-11-25T01:47:10;3;2;
40569;PMS5003;26270;34.428;-119.710;2022-11-25T01:49:42;1;1;
40569;PMS5003;26270;34.428;-119.710;2022-11-25T01:52:14;3;2;
40569;PMS5003;26270;34.428;-119.710;2022-11-25T01:54:48;4;4;
40569;PMS5003;26270;34.428;-119.710;2022-11-25T01:57:21;2;1;
40569;PMS5003;26270;34.428;-119.710;2022-11-25T01:59:55;4;3;
40569;PMS5003;26270;34.428;-119.710;2022-11-25T02:02:26;4;4;
40569;PMS5003;26270;34.428;-119.710;2022-11-25T02:04:55;6;4;
40569;PMS5003;26270;34.428;-119.710;2022-11-25T02:07:25;8;7;
40569;PMS5003;26270;34.428;-119.710;2022-11-25T02:09:57;8;8;
40569;PMS5003;26270;34.428;-119.710;2022-11-25T02:12:28;8;7;
40569;PMS5003;26270;34.428;-119.710;2022-11-25T02:14:57;13;13;
40569;PMS5003;26270;34.428;-119.710;2022-11-25T02:17:26;23;23;
40569;PMS5003;26270;34.428;-119.710;2022-11-25T02:19:58;20;19;
40569;PMS5003;26270;34.428;-119.710;2022-11-25T02:22:32;2;2;
40569;PMS5003;26270;34.428;-119.710;2022-11-25T02:25:12;1;1;
40569;PMS5003;26270;34.428;-119.710;2022-11-25T02:27:43;2;1;
40569;PMS5003;26270;34.428;-119.710;2022-11-25T02:30:13;3;2;
40569;PMS5003;26270;34.428;-119.710;2022-11-25T02:32:42;12;10;
40569;PMS5003;26270;34.428;-119.710;2022-11-25T02:35:28;12;11;
40569;PMS5003;26270;34.428;-119.710;2022-11-25T02:38:00;12;10;
40569;PMS5003;26270;34.428;-119.710;2022-11-25T02:40:33;15;15;
40569;PMS5003;26270;34.428;-119.710;2022-11-25T02:43:06;17;14;
40569;PMS5003;26270;34.428;-119.710;2022-11-25T02:45:38;17;15;
40569;PMS5003;26270;34.428;-119.710;2022-11-25T02:48:16;14;14;
40569;PMS5003;26270;34.428;-119.710;2022-11-25T02:50:45;16;14;
40569;PMS5003;26270;34.428;-119.710;2022-11-25T02:53:13;14;13;
40569;PMS5003;26270;34.428;-119.710;2022-11-25T02:55:41;13;11;
40569;PMS5003;26270;34.428;-119.710;2022-11-25T02:58:10;14;11;
40569;PMS5003;26270;34.428;-119.710;2022-11-25T03:00:39;14;13;
40569;PMS5003;26270;34.428;-119.710;2022-11-25T03:03:08;14;12;
40569;PMS5003;26270;34.428;-119.710;2022-11-25T03:05:37;16;12;
40569;PMS5003;26270;34.428;-119.710;2022-11-25T03:08:06;13;12;
40569;PMS5003;26270;34.428;-119.710;2022-11-25T03:10:34;8;7;
40569;PMS5003;26270;34.428;-119.710;2022-11-25T03:13:03;9;9;
40569;PMS5003;26270;34.428;-119.710;2022-11-25T03:15:32;10;9;
40569;PMS5003;26270;34.428;-119.710;2022-11-25T03:18:01;9;9;
40569;PMS5003;26270;34.428;-119.710;2022-11-25T03:20:30;9;8;
40569;PMS5003;26270;34.428;-119.710;2022-11-25T03:22:59;13;10;
40569;PMS5003;26270;34.428;-119.710;2022-11-25T03:25:29;10;8;
40569;PMS5003;26270;34.428;-119.710;2022-11-25T03:27:57;7;7;
40569;PMS5003;26270;34.428;-119.710;2022-11-25T03:30:26;10;10;
40569;PMS5003;26270;34.428;-119.710;2022-11-25T03:32:54;18;17;
40569;PMS5003;26270;34.428;-119.710;2022-11-25T03:35:22;16;14;
40569;PMS5003;26270;34.428;-119.710;2022-11-25T03:37:51;12;11;
40569;PMS5003;26270;34.428;-119.710;2022-11-25T03:40:19;9;9;
40569;PMS5003;26270;34.428;-119.710;2022-11-25T03:42:47;11;11;
40569;PMS5003;26270;34.428;-119.710;2022-11-25T03:45:16;10;9;
40569;PMS5003;26270;34.428;-119.710;2022-11-25T03:47:44;14;9;
40569;PMS5003;26270;34.428;-119.710;2022-11-25T03:50:12;13;11;
40569;PMS5003;26270;34.428;-119.710;2022-11-25T03:52:41;14;11;
40569;PMS5003;26270;34.428;-119.710;2022-11-25T03:55:09;11;8;
40569;PMS5003;26270;34.428;-119.710;2022-11-25T03:57:38;11;10;
40569;PMS5003;26270;34.428;-119.710;2022-11-25T04:00:09;10;10;
40569;PMS5003;26270;34.428;-119.710;2022-11-25T04:02:38;12;12;
40569;PMS5003;26270;34.428;-119.710;2022-11-25T04:05:06;9;9;
40569;PMS5003;26270;34.428;-119.710;2022-11-25T04:07:35;11;11;
40569;PMS5003;26270;34.428;-119.710;2022-11-25T04:10:04;12;12;
40569;PMS5003;26270;34.428;-119.710;2022-11-25T04:12:33;13;11;
40569;PMS5003;26270;34.428;-119.710;2022-11-25T04:15:01;13;10;
40569;PMS5003;26270;34.428;-119.710;2022-11-25T04:17:30;8;8;
40569;PMS5003;26270;34.428;-119.710;2022-11-25T04:19:58;9;7;
40569;PMS5003;26270;34.428;-119.710;2022-11-25T04:22:26;6;6;
40569;PMS5003;26270;34.428;-119.710;2022-11-25T04:24:55;7;6;
40569;PMS5003;26270;34.428;-119.710;2022-11-25T04:27:23;7;5;
40569;PMS5003;26270;34.428;-119.710;2022-11-25T04:29:51;10;8;
40569;PMS5003;26270;34.428;-119.710;2022-11-25T04:32:19;10;7;
40569;PMS5003;26270;34.428;-119.710;2022-11-25T04:34:48;5;5;
40569;PMS5003;26270;34.428;-119.710;2022-11-25T04:37:16;6;5;
40569;PMS5003;26270;34.428;-119.710;2022-11-25T04:39:45;6;6;
40569;PMS5003;26270;34.428;-119.710;2022-11-25T04:42:13;6;4;
40569;PMS5003;26270;34.428;-119.710;2022-11-25T04:44:42;6;4;
40569;PMS5003;26270;34.428;-119.710;2022-11-25T04:47:10;5;5;
40569;PMS5003;26270;34.428;-119.710;2022-11-25T04:49:38;5;5;
40569;PMS5003;26270;34.428;-119.710;2022-11-25T04:52:07;5;5;
40569;PMS5003;26270;34.428;-119.710;2022-11-25T04:54:35;4;3;
40569;PMS5003;26270;34.428;-119.710;2022-11-25T04:57:03;7;6;
40569;PMS5003;26270;34.428;-119.710;2022-11-25T04:59:31;6;6;
40569;PMS5003;26270;34.428;-119.710;2022-11-25T05:03:18;15;13;
40569;PMS5003;26270;34.428;-119.710;2022-11-25T05:05:46;8;7;
40569;PMS5003;26270;34.428;-119.710;2022-11-25T05:08:14;8;8;
40569;PMS5003;26270;34.428;-119.710;2022-11-25T05:10:42;11;10;
40569;PMS5003;26270;34.428;-119.710;2022-11-25T05:13:10;10;9;
40569;PMS5003;26270;34.428;-119.710;2022-11-25T05:15:38;16;15;
40569;PMS5003;26270;34.428;-119.710;2022-11-25T05:18:06;20;17;
40569;PMS5003;26270;34.428;-119.710;2022-11-25T05:20:34;16;16;
40569;PMS5003;26270;34.428;-119.710;2022-11-25T05:23:03;20;19;
40569;PMS5003;26270;34.428;-119.710;2022-11-25T05:25:31;23;22;
40569;PMS5003;26270;34.428;-119.710;2022-11-25T05:27:59;24;22;
40569;PMS5003;26270;34.428;-119.710;2022-11-25T05:30:28;29;28;
40569;PMS5003;26270;34.428;-119.710;2022-11-25T05:32:56;11;11;
40569;PMS5003;26270;34.428;-119.710;2022-11-25T05:35:25;11;9;
40569;PMS5003;26270;34.428;-119.710;2022-11-25T05:37:53;11;10;
40569;PMS5003;26270;34.428;-119.710;2022-11-25T05:40:21;11;10;
40569;PMS5003;26270;34.428;-119.710;2022-11-25T05:42:49;12;12;
40569;PMS5003;26270;34.428;-119.710;2022-11-25T05:45:17;14;12;
40569;PMS5003;26270;34.428;-119.710;2022-11-25T05:47:45;7;6;
40569;PMS5003;26270;34.428;-119.710;2022-11-25T05:50:14;6;6;
40569;PMS5003;26270;34.428;-119.710;2022-11-25T05:52:42;8;7;
40569;PMS5003;26270;34.428;-119.710;2022-11-25T05:55:10;6;6;
40569;PMS5003;26270;34.428;-119.710;2022-11-25T05:57:38;6;6;
40569;PMS5003;26270;34.428;-119.710;2022-11-25T06:00:06;6;6;
40569;PMS5003;26270;34.428;-119.710;2022-11-25T06:02:35;9;7;
40569;PMS5003;26270;34.428;-119.710;2022-11-25T06:05:04;6;5;
40569;PMS5003;26270;34.428;-119.710;2022-11-25T06:07:32;5;5;
40569;PMS5003;26270;34.428;-119.710;2022-11-25T06:10:00;4;4;
40569;PMS5003;26270;34.428;-119.710;2022-11-25T06:12:29;5;5;
40569;PMS5003;26270;34.428;-119.710;2022-11-25T06:14:58;8;5;
40569;PMS5003;26270;34.428;-119.710;2022-11-25T06:17:26;6;5;
40569;PMS5003;26270;34.428;-119.710;2022-11-25T06:19:54;5;4;
40569;PMS5003;26270;34.428;-119.710;2022-11-25T06:22:23;4;3;
40569;PMS5003;26270;34.428;-119.710;2022-11-25T06:24:51;5;4;
40569;PMS5003;26270;34.428;-119.710;2022-11-25T06:27:20;4;3;
40569;PMS5003;26270;34.428;-119.710;2022-11-25T06:29:48;4;3;
40569;PMS5003;26270;34.428;-119.710;2022-11-25T06:32:17;4;3;
40569;PMS5003;26270;34.428;-119.710;2022-11-25T06:34:46;3;2;
40569;PMS5003;26270;34.428;-119.710;2022-11-25T06:37:14;1;1;
40569;PMS5003;26270;34.428;-119.710;2022-11-25T06:39:43;3;2;
40569;PMS5003;26270;34.428;-119.710;2022-11-25T06:42:16;2;2;
40569;PMS5003;26270;34.428;-119.710;2022-11-25T06:44:45;2;2;
40569;PMS5003;26270;34.428;-119.710;2022-11-25T06:47:13;4;2;
40569;PMS5003;26270;34.428;-119.710;2022-11-25T06:49:42;1;1;
40569;PMS5003;26270;34.428;-119.710;2022-11-25T06:52:10;1;1;
40569;PMS5003;26270;34.428;-119.710;2022-11-25T06:54:39;1;1;
40569;PMS5003;26270;34.428;-119.710;2022-11-25T06:57:08;1;1;
40569;PMS5003;26270;34.428;-119.710;2022-11-25T06:59:37;1;1;
40569;PMS5003;26270;34.428;-119.710;2022-11-25T07:02:05;1;1;
40569;PMS5003;26270;34.428;-119.710;2022-11-25T07:04:41;7;3;
40569;PMS5003;26270;34.428;-119.710;2022-11-25T07:07:09;3;3;
40569;PMS5003;26270;34.428;-119.710;2022-11-25T07:09:38;14;13;
40569;PMS5003;26270;34.428;-119.710;2022-11-25T07:12:06;12;11;
40569;PMS5003;26270;34.428;-119.710;2022-11-25T07:14:34;11;11;
40569;PMS5003;26270;34.428;-119.710;2022-11-25T07:17:03;10;7;
40569;PMS5003;26270;34.428;-119.710;2022-11-25T07:19:32;9;8;
40569;PMS5003;26270;34.428;-119.710;2022-11-25T07:22:00;10;10;
40569;PMS5003;26270;34.428;-119.710;2022-11-25T07:24:28;8;8;
40569;PMS5003;26270;34.428;-119.710;2022-11-25T07:26:56;9;9;
40569;PMS5003;26270;34.428;-119.710;2022-11-25T07:29:24;8;8;
40569;PMS5003;26270;34.428;-119.710;2022-11-25T07:31:53;5;4;
40569;PMS5003;26270;34.428;-119.710;2022-11-25T07:34:21;4;4;
40569;PMS5003;26270;34.428;-119.710;2022-11-25T07:36:50;3;3;
40569;PMS5003;26270;34.428;-119.710;2022-11-25T07:39:19;3;3;
40569;PMS5003;26270;34.428;-119.710;2022-11-25T07:41:49;4;4;
40569;PMS5003;26270;34.428;-119.710;2022-11-25T07:44:18;3;3;
40569;PMS5003;26270;34.428;-119.710;2022-11-25T07:46:47;2;2;
40569;PMS5003;26270;34.428;-119.710;2022-11-25T07:49:17;2;2;
40569;PMS5003;26270;34.428;-119.710;2022-11-25T07:51:48;2;1;
40569;PMS5003;26270;34.428;-119.710;2022-11-25T07:54:18;1;1;
40569;PMS5003;26270;34.428;-119.710;2022-11-25T07:56:47;1;1;
40569;PMS5003;26270;34.428;-119.710;2022-11-25T07:59:17;2;1;
40569;PMS5003;26270;34.428;-119.710;2022-11-25T08:01:52;2;2;
40569;PMS5003;26270;34.428;-119.710;2022-11-25T08:04:21;1;1;
40569;PMS5003;26270;34.428;-119.710;2022-11-25T08:06:50;2;1;
40569;PMS5003;26270;34.428;-119.710;2022-11-25T08:09:20;4;3;
40569;PMS5003;26270;34.428;-119.710;2022-11-25T08:11:49;3;3;
40569;PMS5003;26270;34.428;-119.710;2022-11-25T08:14:17;6;5;
40569;PMS5003;26270;34.428;-119.710;2022-11-25T08:16:46;8;7;
40569;PMS5003;26270;34.428;-119.710;2022-11-25T08:19:15;5;5;
40569;PMS5003;26270;34.428;-119.710;2022-11-25T08:21:43;9;4;
40569;PMS5003;26270;34.428;-119.710;2022-11-25T08:24:12;6;5;
40569;PMS5003;26270;34.428;-119.710;2022-11-25T08:26:44;3;3;
40569;PMS5003;26270;34.428;-119.710;2022-11-25T08:29:14;4;3;
40569;PMS5003;26270;34.428;-119.710;2022-11-25T08:31:43;4;2;
40569;PMS5003;26270;34.428;-119.710;2022-11-25T08:34:15;3;2;
40569;PMS5003;26270;34.428;-119.710;2022-11-25T08:36:45;3;2;
40569;PMS5003;26270;34.428;-119.710;2022-11-25T08:39:13;2;2;
40569;PMS5003;26270;34.428;-119.710;2022-11-25T08:41:42;2;2;
40569;PMS5003;26270;34.428;-119.710;2022-11-25T08:44:10;3;3;
40569;PMS5003;26270;34.428;-119.710;2022-11-25T08:46:39;3;2;
40569;PMS5003;26270;34.428;-119.710;2022-11-25T08:49:07;1;1;
40569;PMS5003;26270;34.428;-119.710;2022-11-25T08:51:37;4;3;
40569;PMS5003;26270;34.428;-119.710;2022-11-25T08:54:06;2;1;
40569;PMS5003;26270;34.428;-119.710;2022-11-25T08:56:34;1;1;
40569;PMS5003;26270;34.428;-119.710;2022-11-25T08:59:03;3;2;
40569;PMS5003;26270;34.428;-119.710;2022-11-25T09:01:31;1;0;
40569;PMS5003;26270;34.428;-119.710;2022-11-25T09:03:59;0;0;
40569;PMS5003;26270;34.428;-119.710;2022-11-25T09:06:27;2;1;
40569;PMS5003;26270;34.428;-119.710;2022-11-25T09:08:55;2;1;
40569;PMS5003;26270;34.428;-119.710;2022-11-25T09:11:26;4;4;
40569;PMS5003;26270;34.428;-119.710;2022-11-25T09:13:54;2;2;
40569;PMS5003;26270;34.428;-119.710;2022-11-25T09:16:22;2;2;
40569;PMS5003;26270;34.428;-119.710;2022-11-25T09:18:51;1;1;
40569;PMS5003;26270;34.428;-119.710;2022-11-25T09:21:19;2;1;
40569;PMS5003;26270;34.428;-119.710;2022-11-25T09:23:48;1;1;
40569;PMS5003;26270;34.428;-119.710;2022-11-25T09:26:19;3;3;
40569;PMS5003;26270;34.428;-119.710;2022-11-25T09:28:49;4;4;
40569;PMS5003;26270;34.428;-119.710;2022-11-25T09:31:18;1;1;
40569;PMS5003;26270;34.428;-119.710;2022-11-25T09:33:47;2;2;
40569;PMS5003;26270;34.428;-119.710;2022-11-25T09:36:16;1;0;
40569;PMS5003;26270;34.428;-119.710;2022-11-25T09:38:46;0;0;
40569;PMS5003;26270;34.428;-119.710;2022-11-25T09:41:19;0;0;
40569;PMS5003;26270;34.428;-119.710;2022-11-25T09:44:00;0;0;
40569;PMS5003;26270;34.428;-119.710;2022-11-25T09:46:46;1;1;
40569;PMS5003;26270;34.428;-119.710;2022-11-25T09:49:23;1;1;
40569;PMS5003;26270;34.428;-119.710;2022-11-25T09:52:08;0;0;
40569;PMS5003;26270;34.428;-119.710;2022-11-25T09:54:46;4;3;
40569;PMS5003;26270;34.428;-119.710;2022-11-25T09:57:22;1;1;
40569;PMS5003;26270;34.428;-119.710;2022-11-25T10:00:00;1;1;
40569;PMS5003;26270;34.428;-119.710;2022-11-25T10:02:33;1;1;
40569;PMS5003;26270;34.428;-119.710;2022-11-25T10:05:07;1;1;
40569;PMS5003;26270;34.428;-119.710;2022-11-25T10:07:42;1;1;
40569;PMS5003;26270;34.428;-119.710;2022-11-25T10:10:14;0;0;
40569;PMS5003;26270;34.428;-119.710;2022-11-25T10:12:48;0;0;
40569;PMS5003;26270;34.428;-119.710;2022-11-25T10:15:20;2;1;
40569;PMS5003;26270;34.428;-119.710;2022-11-25T10:17:55;0;0;
40569;PMS5003;26270;34.428;-119.710;2022-11-25T10:20:28;0;0;
40569;PMS5003;26270;34.428;-119.710;2022-11-25T10:22:59;1;0;
40569;PMS5003;26270;34.428;-119.710;2022-11-25T10:25:32;0;0;
40569;PMS5003;26270;34.428;-119.710;2022-11-25T10:28:09;0;0;
40569;PMS5003;26270;34.428;-119.710;2022-11-25T10:30:46;1;1;
40569;PMS5003;26270;34.428;-119.710;2022-11-25T10:33:21;1;1;
40569;PMS5003;26270;34.428;-119.710;2022-11-25T10:35:55;1;1;
40569;PMS5003;26270;34.428;-119.710;2022-11-25T10:38:28;1;1;
40569;PMS5003;26270;34.428;-119.710;2022-11-25T10:41:05;1;1;
40569;PMS5003;26270;34.428;-119.710;2022-11-25T10:43:35;1;1;
40569;PMS5003;26270;34.428;-119.710;2022-11-25T10:46:06;0;0;
40569;PMS5003;26270;34.428;-119.710;2022-11-25T10:48:47;0;0;
40569;PMS5003;26270;34.428;-119.710;2022-11-25T10:51:30;2;0;
40569;PMS5003;26270;34.428;-119.710;2022-11-25T10:54:11;1;1;
40569;PMS5003;26270;34.428;-119.710;2022-11-25T10:56:42;0;0;
40569;PMS5003;26270;34.428;-119.710;2022-11-25T10:59:16;0;0;
40569;PMS5003;26270;34.428;-119.710;2022-11-25T11:01:50;1;0;
40569;PMS5003;26270;34.428;-119.710;2022-11-25T11:04:20;0;0;
40569;PMS5003;26270;34.428;-119.710;2022-11-25T11:06:48;1;0;
40569;PMS5003;26270;34.428;-119.710;2022-11-25T11:09:39;0;0;
40569;PMS5003;26270;34.428;-119.710;2022-11-25T11:12:12;1;1;
40569;PMS5003;26270;34.428;-119.710;2022-11-25T11:14:44;0;0;
40569;PMS5003;26270;34.428;-119.710;2022-11-25T11:17:30;2;0;
40569;PMS5003;26270;34.428;-119.710;2022-11-25T11:20:01;0;0;
40569;PMS5003;26270;34.428;-119.710;2022-11-25T11:22:46;1;0;
40569;PMS5003;26270;34.428;-119.710;2022-11-25T11:25:24;0;0;
40569;PMS5003;26270;34.428;-119.710;2022-11-25T11:27:55;0;0;
40569;PMS5003;26270;34.428;-119.710;2022-11-25T11:30:24;2;1;
40569;PMS5003;26270;34.428;-119.710;2022-11-25T11:32:55;1;0;
40569;PMS5003;26270;34.428;-119.710;2022-11-25T11:35:28;0;0;
40569;PMS5003;26270;34.428;-119.710;2022-11-25T11:38:06;0;0;
40569;PMS5003;26270;34.428;-119.710;2022-11-25T11:40:46;0;0;
40569;PMS5003;26270;34.428;-119.710;2022-11-25T11:43:23;1;0;
40569;PMS5003;26270;34.428;-119.710;2022-11-25T11:46:07;0;0;
40569;PMS5003;26270;34.428;-119.710;2022-11-25T11:48:47;1;1;
40569;PMS5003;26270;34.428;-119.710;2022-11-25T11:51:25;1;0;
40569;PMS5003;26270;34.428;-119.710;2022-11-25T11:54:05;0;0;
40569;PMS5003;26270;34.428;-119.710;2022-11-25T11:56:43;1;1;
40569;PMS5003;26270;34.428;-119.710;2022-11-25T11:59:20;0;0;
40569;PMS5003;26270;34.428;-119.710;2022-11-25T12:02:13;1;0;
40569;PMS5003;26270;34.428;-119.710;2022-11-25T12:04:51;0;0;
40569;PMS5003;26270;34.428;-119.710;2022-11-25T12:07:30;1;1;
40569;PMS5003;26270;34.428;-119.710;2022-11-25T12:10:05;0;0;
40569;PMS5003;26270;34.428;-119.710;2022-11-25T12:12:44;0;0;
40569;PMS5003;26270;34.428;-119.710;2022-11-25T12:15:20;1;1;
40569;PMS5003;26270;34.428;-119.710;2022-11-25T12:18:08;1;0;
40569;PMS5003;26270;34.428;-119.710;2022-11-25T12:20:42;0;0;
40569;PMS5003;26270;34.428;-119.710;2022-11-25T12:23:17;0;0;
40569;PMS5003;26270;34.428;-119.710;2022-11-25T12:25:53;0;0;
40569;PMS5003;26270;34.428;-119.710;2022-11-25T12:28:29;0;0;
40569;PMS5003;26270;34.428;-119.710;2022-11-25T12:31:04;0;0;
40569;PMS5003;26270;34.428;-119.710;2022-11-25T12:33:42;0;0;
40569;PMS5003;26270;34.428;-119.710;2022-11-25T12:36:21;3;1;
40569;PMS5003;26270;34.428;-119.710;2022-11-25T12:38:59;0;0;
40569;PMS5003;26270;34.428;-119.710;2022-11-25T12:41:36;0;0;
40569;PMS5003;26270;34.428;-119.710;2022-11-25T12:44:12;0;0;
40569;PMS5003;26270;34.428;-119.710;2022-11-25T12:46:45;0;0;
40569;PMS5003;26270;34.428;-119.710;2022-11-25T12:49:16;1;0;
40569;PMS5003;26270;34.428;-119.710;2022-11-25T12:52:01;1;0;
40569;PMS5003;26270;34.428;-119.710;2022-11-25T12:54:43;0;0;
40569;PMS5003;26270;34.428;-119.710;2022-11-25T12:57:38;0;0;
40569;PMS5003;26270;34.428;-119.710;2022-11-25T13:00:38;0;0;
40569;PMS5003;26270;34.428;-119.710;2022-11-25T13:03:27;0;0;
40569;PMS5003;26270;34.428;-119.710;2022-11-25T13:06:15;0;0;
40569;PMS5003;26270;34.428;-119.710;2022-11-25T13:09:02;0;0;
40569;PMS5003;26270;34.428;-119.710;2022-11-25T13:11:55;1;1;
40569;PMS5003;26270;34.428;-119.710;2022-11-25T13:14:38;1;0;
40569;PMS5003;26270;34.428;-119.710;2022-11-25T13:17:28;1;0;
40569;PMS5003;26270;34.428;-119.710;2022-11-25T13:20:41;0;0;
40569;PMS5003;26270;34.428;-119.710;2022-11-25T13:23:28;0;0;
40569;PMS5003;26270;34.428;-119.710;2022-11-25T13:27:15;1;1;
40569;PMS5003;26270;34.428;-119.710;2022-11-25T13:29:57;1;0;
40569;PMS5003;26270;34.428;-119.710;2022-11-25T13:32:28;5;4;
40569;PMS5003;26270;34.428;-119.710;2022-11-25T13:35:31;3;3;
40569;PMS5003;26270;34.428;-119.710;2022-11-25T13:38:33;0;0;
40569;PMS5003;26270;34.428;-119.710;2022-11-25T13:41:20;0;0;
40569;PMS5003;26270;34.428;-119.710;2022-11-25T13:43:54;0;0;
40569;PMS5003;26270;34.428;-119.710;2022-11-25T13:46:34;0;0;
40569;PMS5003;26270;34.428;-119.710;2022-11-25T13:49:05;0;0;
40569;PMS5003;26270;34.428;-119.710;2022-11-25T13:51:48;0;0;
40569;PMS5003;26270;34.428;-119.710;2022-11-25T13:54:17;1;0;
40569;PMS5003;26270;34.428;-119.710;2022-11-25T13:56:56;0;0;
40569;PMS5003;26270;34.428;-119.710;2022-11-25T13:59:59;0;0;
40569;PMS5003;26270;34.428;-119.710;2022-11-25T14:02:36;1;0;
40569;PMS5003;26270;34.428;-119.710;2022-11-25T14:05:13;0;0;
40569;PMS5003;26270;34.428;-119.710;2022-11-25T14:08:00;0;0;
40569;PMS5003;26270;34.428;-119.710;2022-11-25T14:10:41;0;0;
40569;PMS5003;26270;34.428;-119.710;2022-11-25T14:14:26;1;1;
40569;PMS5003;26270;34.428;-119.710;2022-11-25T14:17:46;0;0;
40569;PMS5003;26270;34.428;-119.710;2022-11-25T14:20:35;0;0;
40569;PMS5003;26270;34.428;-119.710;2022-11-25T14:23:51;0;0;
40569;PMS5003;26270;34.428;-119.710;2022-11-25T14:26:28;0;0;
40569;PMS5003;26270;34.428;-119.710;2022-11-25T14:29:01;1;0;
40569;PMS5003;26270;34.428;-119.710;2022-11-25T14:31:35;0;0;
40569;PMS5003;26270;34.428;-119.710;2022-11-25T14:34:10;0;0;
40569;PMS5003;26270;34.428;-119.710;2022-11-25T14:36:42;0;0;
40569;PMS5003;26270;34.428;-119.710;2022-11-25T14:39:16;0;0;
40569;PMS5003;26270;34.428;-119.710;2022-11-25T14:41:53;0;0;
40569;PMS5003;26270;34.428;-119.710;2022-11-25T14:44:29;0;0;
40569;PMS5003;26270;34.428;-119.710;2022-11-25T14:47:03;0;0;
40569;PMS5003;26270;34.428;-119.710;2022-11-25T14:49:47;0;0;
40569;PMS5003;26270;34.428;-119.710;2022-11-25T14:52:20;0;0;
40569;PMS5003;26270;34.428;-119.710;2022-11-25T14:54:51;0;0;
40569;PMS5003;26270;34.428;-119.710;2022-11-25T14:57:21;0;0;
40569;PMS5003;26270;34.428;-119.710;2022-11-25T14:59:53;1;0;
40569;PMS5003;26270;34.428;-119.710;2022-11-25T15:02:28;0;0;
40569;PMS5003;26270;34.428;-119.710;2022-11-25T15:05:01;0;0;
40569;PMS5003;26270;34.428;-119.710;2022-11-25T15:07:54;1;0;
40569;PMS5003;26270;34.428;-119.710;2022-11-25T15:10:27;0;0;
40569;PMS5003;26270;34.428;-119.710;2022-11-25T15:12:57;1;0;
40569;PMS5003;26270;34.428;-119.710;2022-11-25T15:15:27;1;1;
40569;PMS5003;26270;34.428;-119.710;2022-11-25T15:17:55;1;1;
40569;PMS5003;26270;34.428;-119.710;2022-11-25T15:20:22;1;0;
40569;PMS5003;26270;34.428;-119.710;2022-11-25T15:22:53;0;0;
40569;PMS5003;26270;34.428;-119.710;2022-11-25T15:25:21;0;0;
40569;PMS5003;26270;34.428;-119.710;2022-11-25T15:27:50;0;0;
40569;PMS5003;26270;34.428;-119.710;2022-11-25T15:30:20;1;1;
40569;PMS5003;26270;34.428;-119.710;2022-11-25T15:32:50;1;1;
40569;PMS5003;26270;34.428;-119.710;2022-11-25T15:35:21;1;1;
40569;PMS5003;26270;34.428;-119.710;2022-11-25T15:37:51;1;0;
40569;PMS5003;26270;34.428;-119.710;2022-11-25T15:40:28;0;0;
40569;PMS5003;26270;34.428;-119.710;2022-11-25T15:43:00;0;0;
40569;PMS5003;26270;34.428;-119.710;2022-11-25T15:45:35;1;0;
40569;PMS5003;26270;34.428;-119.710;2022-11-25T15:48:11;1;1;
40569;PMS5003;26270;34.428;-119.710;2022-11-25T15:50:43;1;1;
40569;PMS5003;26270;34.428;-119.710;2022-11-25T15:53:16;3;2;
40569;PMS5003;26270;34.428;-119.710;2022-11-25T15:55:52;3;2;
40569;PMS5003;26270;34.428;-119.710;2022-11-25T15:58:26;5;2;
40569;PMS5003;26270;34.428;-119.710;2022-11-25T16:00:59;1;1;
40569;PMS5003;26270;34.428;-119.710;2022-11-25T16:03:29;1;1;
40569;PMS5003;26270;34.428;-119.710;2022-11-25T16:05:57;4;4;
40569;PMS5003;26270;34.428;-119.710;2022-11-25T16:08:34;6;4;
40569;PMS5003;26270;34.428;-119.710;2022-11-25T16:11:12;2;2;
40569;PMS5003;26270;34.428;-119.710;2022-11-25T16:13:42;1;1;
40569;PMS5003;26270;34.428;-119.710;2022-11-25T16:16:14;1;1;
40569;PMS5003;26270;34.428;-119.710;2022-11-25T16:18:50;1;1;
40569;PMS5003;26270;34.428;-119.710;2022-11-25T16:21:23;3;2;
40569;PMS5003;26270;34.428;-119.710;2022-11-25T16:23:54;1;1;
40569;PMS5003;26270;34.428;-119.710;2022-11-25T16:26:26;2;2;
40569;PMS5003;26270;34.428;-119.710;2022-11-25T16:28:58;1;1;
40569;PMS5003;26270;34.428;-119.710;2022-11-25T16:31:28;1;1;
40569;PMS5003;26270;34.428;-119.710;2022-11-25T16:33:57;1;1;